Time;durP1;ratioP1;P1;durP2;ratioP2;P2;SDS_P1;SDS_P2;PMS_P1;PMS_P2;Temp;Humidity;BMP_temperature;BMP_pressure;BME280_temperature;BME280_humidity;BME280_pressure;Samples;Min_cycle;Max_cycle;Signal;HPM_P1;HPM_P2
2022/01/20 00:01:58;;;;;;;;;;;19.20;54.50;;;;;;5075095;28;1276;-68
2022/01/20 00:04:29;;;;;;;;;;;19.20;54.50;;;;;;5073771;28;1393;-68
2022/01/20 00:07:25;;;;;;;;;;;19.20;54.50;;;;;;5074938;28;1918;-67
2022/01/20 00:23:42;;;;;;;;;;;19.20;54.70;;;;;;5054649;28;1687;-68
2022/01/20 00:26:09;;;;;;;;;;;19.10;54.70;;;;;;5074240;28;1894;-68
2022/01/20 00:28:43;;;;;;;;;;;19.10;54.70;;;;;;5073132;28;1422;-69
2022/01/20 00:33:47;;;;;;;;;;;19.10;54.80;;;;;;5074666;28;1376;-68
2022/01/20 00:38:40;;;;;;;;;;;19.10;54.80;;;;;;5073104;28;1721;-69
2022/01/20 00:41:08;;;;;;;;;;;19.10;55.40;;;;;;5073713;28;1674;-68
2022/01/20 00:43:34;;;;;;;;;;;19.10;54.90;;;;;;5074245;28;1652;-68
2022/01/20 00:45:59;;;;;;;;;;;19.10;54.90;;;;;;5073992;28;1905;-68
2022/01/20 00:48:25;;;;;;;;;;;19.10;54.90;;;;;;5073695;28;1714;-69
2022/01/20 00:50:50;;;;;;;;;;;19.00;54.90;;;;;;5074138;28;1243;-68
2022/01/20 00:53:15;;;;;;;;;;;19.10;54.90;;;;;;5073981;28;1717;-68
2022/01/20 00:55:41;;;;;;;;;;;19.00;54.90;;;;;;5072590;28;1267;-68
2022/01/20 00:58:07;;;;;;;;;;;19.00;55.00;;;;;;5073902;28;1437;-68
2022/01/20 01:00:32;;;;;;;;;;;19.10;55.00;;;;;;5072654;28;1612;-69
2022/01/20 01:02:58;;;;;;;;;;;19.00;55.00;;;;;;5072473;28;1413;-68
2022/01/20 01:05:24;;;;;;;;;;;19.00;55.00;;;;;;5073754;28;1643;-68
2022/01/20 01:07:52;;;;;;;;;;;19.00;55.00;;;;;;5073559;28;1981;-68
2022/01/20 01:10:19;;;;;;;;;;;19.00;55.00;;;;;;5072462;28;1636;-68
2022/01/20 01:12:51;;;;;;;;;;;19.00;55.00;;;;;;5073805;28;1625;-68
2022/01/20 01:15:27;;;;;;;;;;;19.00;55.10;;;;;;5072248;28;1905;-68
2022/01/20 01:23:21;;;;;;;;;;;19.00;55.10;;;;;;5073485;28;1565;-68
2022/01/20 01:25:46;;;;;;;;;;;19.00;55.20;;;;;;5073315;28;1890;-68
2022/01/20 01:28:11;;;;;;;;;;;19.00;55.20;;;;;;5073187;28;1716;-67
2022/01/20 01:31:15;;;;;;;;;;;19.00;55.20;;;;;;5073284;28;1700;-68
2022/01/20 01:33:38;;;;;;;;;;;19.00;55.20;;;;;;5073021;28;1264;-68
2022/01/20 01:36:06;;;;;;;;;;;19.00;55.20;;;;;;5073099;28;1399;-67
2022/01/20 01:38:38;;;;;;;;;;;18.90;55.20;;;;;;5073052;28;1661;-68
2022/01/20 01:41:12;;;;;;;;;;;18.90;55.20;;;;;;5073193;28;1559;-68
2022/01/20 01:43:40;;;;;;;;;;;18.90;55.20;;;;;;5073173;28;1648;-68
2022/01/20 01:46:06;;;;;;;;;;;18.90;55.30;;;;;;5068662;28;1914;-68
2022/01/20 01:48:31;;;;;;;;;;;18.90;55.30;;;;;;5061538;28;1449;-68
2022/01/20 01:50:59;;;;;;;;;;;18.90;55.30;;;;;;5055674;28;1427;-68
2022/01/20 01:53:24;;;;;;;;;;;18.90;55.30;;;;;;5071536;28;1424;-68
2022/01/20 01:55:50;;;;;;;;;;;18.90;55.30;;;;;;5072940;28;1212;-68
2022/01/20 01:58:15;;;;;;;;;;;18.90;55.30;;;;;;5072702;28;1823;-69
2022/01/20 02:00:42;;;;;;;;;;;18.90;55.30;;;;;;5072952;28;1705;-67
2022/01/20 02:03:08;;;;;;;;;;;18.90;55.30;;;;;;5072739;28;1634;-68
2022/01/20 02:05:37;;;;;;;;;;;18.90;55.40;;;;;;5072962;28;1382;-69
2022/01/20 02:17:52;;;;;;;;;;;18.90;55.40;;;;;;5073020;28;1608;-68
2022/01/20 02:19:09;;;;;;;;;;;18.80;55.40;;;;;;5071502;28;1443;-68
2022/01/20 02:21:36;;;;;;;;;;;18.80;55.40;;;;;;5072967;28;1386;-67
2022/01/20 02:24:01;;;;;;;;;;;18.90;55.40;;;;;;5072808;28;1387;-68
2022/01/20 02:26:27;;;;;;;;;;;18.90;55.30;;;;;;5072599;28;1898;-67
2022/01/20 02:28:52;;;;;;;;;;;18.90;55.30;;;;;;5072745;28;1464;-67
2022/01/20 02:31:18;;;;;;;;;;;19.00;55.30;;;;;;5072663;28;1538;-68
2022/01/20 02:33:43;;;;;;;;;;;19.00;55.30;;;;;;5073122;28;1381;-68
2022/01/20 02:36:12;;;;;;;;;;;19.00;55.20;;;;;;5072721;28;1407;-68
2022/01/20 02:38:43;;;;;;;;;;;19.00;55.10;;;;;;5071261;28;1666;-68
2022/01/20 02:46:37;;;;;;;;;;;19.20;55.00;;;;;;5072451;28;1905;-68
2022/01/20 02:49:03;;;;;;;;;;;19.20;54.90;;;;;;5072294;28;1379;-68
2022/01/20 02:51:28;;;;;;;;;;;19.10;54.80;;;;;;5072513;28;1426;-68
2022/01/20 02:53:53;;;;;;;;;;;19.20;54.80;;;;;;5072546;28;1364;-68
2022/01/20 02:56:19;;;;;;;;;;;19.20;54.80;;;;;;5071324;28;1439;-68
2022/01/20 02:58:44;;;;;;;;;;;19.20;54.80;;;;;;5072171;28;1436;-68
2022/01/20 03:01:10;;;;;;;;;;;19.20;55.30;;;;;;5071011;28;1578;-67
2022/01/20 03:03:35;;;;;;;;;;;19.20;54.70;;;;;;5072314;28;1593;-68
2022/01/20 03:06:01;;;;;;;;;;;19.30;54.70;;;;;;5076055;28;1906;-68
2022/01/20 03:08:27;;;;;;;;;;;19.30;54.70;;;;;;5075838;28;1678;-68
2022/01/20 03:10:52;;;;;;;;;;;19.20;54.70;;;;;;5075972;28;1663;-68
2022/01/20 03:13:18;;;;;;;;;;;19.30;54.70;;;;;;5076033;28;1593;-68
2022/01/20 03:15:43;;;;;;;;;;;19.30;54.70;;;;;;5075847;28;1505;-68
2022/01/20 03:18:09;;;;;;;;;;;19.30;54.70;;;;;;5074226;28;1689;-68
2022/01/20 03:20:34;;;;;;;;;;;19.30;54.70;;;;;;5075688;28;1385;-67
2022/01/20 03:23:00;;;;;;;;;;;19.30;54.70;;;;;;5075706;28;1407;-68
2022/01/20 03:25:25;;;;;;;;;;;19.30;54.70;;;;;;5075661;28;1715;-67
2022/01/20 03:27:51;;;;;;;;;;;19.30;54.70;;;;;;5075164;28;1898;-67
2022/01/20 03:30:16;;;;;;;;;;;19.30;54.70;;;;;;5075037;28;1554;-68
2022/01/20 03:32:42;;;;;;;;;;;19.30;54.70;;;;;;5064448;28;1141;-68
2022/01/20 03:35:08;;;;;;;;;;;19.30;54.70;;;;;;5069221;28;1308;-68
2022/01/20 03:37:34;;;;;;;;;;;19.30;54.70;;;;;;5070616;28;1381;-68
2022/01/20 03:39:59;;;;;;;;;;;19.30;54.70;;;;;;5068197;28;1307;-68
2022/01/20 03:42:25;;;;;;;;;;;19.30;54.70;;;;;;5065243;28;1371;-66
2022/01/20 03:44:52;;;;;;;;;;;19.30;54.70;;;;;;5066481;28;1287;-67
2022/01/20 03:47:18;;;;;;;;;;;19.30;54.70;;;;;;5065997;28;1957;-67
2022/01/20 03:50:06;;;;;;;;;;;19.30;54.70;;;;;;5066515;28;1311;-66
2022/01/20 03:52:31;;;;;;;;;;;19.30;54.70;;;;;;5068725;28;1224;-66
2022/01/20 03:54:57;;;;;;;;;;;19.30;54.70;;;;;;5069445;28;1284;-67
2022/01/20 03:57:22;;;;;;;;;;;19.30;54.70;;;;;;5079391;22;3699;-70
2022/01/20 03:59:47;;;;;;;;;;;19.30;55.30;;;;;;5064976;28;1313;-66
2022/01/20 04:02:13;;;;;;;;;;;19.30;54.70;;;;;;5066159;28;1354;-67
2022/01/20 04:04:38;;;;;;;;;;;19.30;54.70;;;;;;5064614;28;1501;-67
2022/01/20 04:07:04;;;;;;;;;;;19.30;54.80;;;;;;5074087;28;1972;-68
2022/01/20 04:09:29;;;;;;;;;;;19.30;54.80;;;;;;5081967;28;1351;-67
2022/01/20 04:11:55;;;;;;;;;;;19.30;54.80;;;;;;5082379;28;1323;-67
2022/01/20 04:14:23;;;;;;;;;;;19.30;54.80;;;;;;5080166;28;1671;-67
2022/01/20 04:17:02;;;;;;;;;;;19.30;54.80;;;;;;5077433;28;1467;-67
2022/01/20 04:19:27;;;;;;;;;;;19.30;54.80;;;;;;5080858;28;1184;-68
2022/01/20 04:21:53;;;;;;;;;;;19.20;54.80;;;;;;5063255;28;1405;-70
2022/01/20 04:24:18;;;;;;;;;;;19.30;54.80;;;;;;5082041;28;1370;-70
2022/01/20 04:26:44;;;;;;;;;;;19.30;54.80;;;;;;5079152;28;1870;-68
2022/01/20 04:29:11;;;;;;;;;;;19.30;54.90;;;;;;5082987;28;1389;-68
2022/01/20 04:31:36;;;;;;;;;;;19.30;54.90;;;;;;5060859;28;1417;-69
2022/01/20 04:34:02;;;;;;;;;;;19.30;54.90;;;;;;5074402;28;1646;-69
2022/01/20 04:36:30;;;;;;;;;;;19.20;54.80;;;;;;5060521;28;1325;-69
2022/01/20 04:38:56;;;;;;;;;;;19.20;54.80;;;;;;5052845;28;1676;-69
2022/01/20 04:41:22;;;;;;;;;;;19.30;54.90;;;;;;5054123;28;1248;-69
2022/01/20 04:43:47;;;;;;;;;;;19.20;54.90;;;;;;5054460;28;1666;-68
2022/01/20 04:46:25;;;;;;;;;;;19.20;54.90;;;;;;5052785;28;1894;-69
2022/01/20 04:56:59;;;;;;;;;;;19.30;54.90;;;;;;5054067;28;1688;-69
2022/01/20 04:57:15;;;;;;;;;;;19.20;54.90;;;;;;5054035;28;1248;-69
2022/01/20 04:59:41;;;;;;;;;;;19.30;55.00;;;;;;5054004;28;1402;-69
2022/01/20 05:02:06;;;;;;;;;;;19.20;55.00;;;;;;5058957;28;2300;-68
2022/01/20 05:04:32;;;;;;;;;;;19.20;54.90;;;;;;5066442;28;1436;-68
2022/01/20 05:06:58;;;;;;;;;;;19.20;55.00;;;;;;5070627;28;1894;-69
2022/01/20 05:09:24;;;;;;;;;;;19.20;54.90;;;;;;5054003;28;1454;-71
2022/01/20 05:11:57;;;;;;;;;;;19.20;54.90;;;;;;5052156;28;1051;-69
2022/01/20 05:14:23;;;;;;;;;;;19.30;54.90;;;;;;5051372;28;1630;-69
2022/01/20 05:16:48;;;;;;;;;;;19.30;54.90;;;;;;5052345;28;1430;-68
2022/01/20 05:19:14;;;;;;;;;;;19.40;54.80;;;;;;5051403;28;1375;-68
2022/01/20 05:21:39;;;;;;;;;;;19.50;54.80;;;;;;5052752;28;1365;-65
2022/01/20 05:24:05;;;;;;;;;;;19.50;54.70;;;;;;5053175;28;1683;-66
2022/01/20 05:26:30;;;;;;;;;;;19.60;54.50;;;;;;5060149;28;1898;-66
2022/01/20 05:28:55;;;;;;;;;;;19.80;54.40;;;;;;5056892;28;1649;-66
2022/01/20 05:31:21;;;;;;;;;;;19.90;54.10;;;;;;5072200;28;1357;-66
2022/01/20 05:33:47;;;;;;;;;;;20.00;53.90;;;;;;5070242;28;2017;-66
2022/01/20 05:36:12;;;;;;;;;;;20.20;53.60;;;;;;5065074;28;1500;-67
2022/01/20 05:38:37;;;;;;;;;;;20.30;53.40;;;;;;5065289;28;1733;-65
2022/01/20 05:41:03;;;;;;;;;;;20.40;53.10;;;;;;5071823;28;1526;-66
2022/01/20 05:43:28;;;;;;;;;;;20.50;52.80;;;;;;5067422;28;1169;-66
2022/01/20 05:45:54;;;;;;;;;;;20.60;52.60;;;;;;5063418;28;1898;-68
2022/01/20 05:48:31;;;;;;;;;;;20.60;52.30;;;;;;5072069;28;1570;-67
2022/01/20 05:50:57;;;;;;;;;;;20.80;52.20;;;;;;5055798;28;1933;-68
2022/01/20 05:53:22;;;;;;;;;;;20.80;52.50;;;;;;5070663;28;1427;-68
2022/01/20 05:55:48;;;;;;;;;;;20.90;51.80;;;;;;5067502;28;1548;-69
2022/01/20 05:58:13;;;;;;;;;;;20.90;51.60;;;;;;5050927;28;1703;-69
2022/01/20 06:00:39;;;;;;;;;;;21.00;51.60;;;;;;5064464;28;1749;-69
2022/01/20 06:05:48;;;;;;;;;;;21.10;51.50;;;;;;5071999;28;1712;-69
2022/01/20 06:08:14;;;;;;;;;;;21.10;51.40;;;;;;5071931;28;1922;-66
2022/01/20 06:10:39;;;;;;;;;;;21.10;51.40;;;;;;5072091;28;1559;-66
2022/01/20 06:13:04;;;;;;;;;;;21.10;51.40;;;;;;5071078;28;1365;-68
2022/01/20 06:15:30;;;;;;;;;;;21.10;51.40;;;;;;5072963;28;1562;-69
2022/01/20 06:17:55;;;;;;;;;;;21.10;51.40;;;;;;5072446;28;1417;-70
2022/01/20 06:20:21;;;;;;;;;;;21.10;51.40;;;;;;5071581;28;1759;-66
2022/01/20 06:22:46;;;;;;;;;;;21.10;51.40;;;;;;5071631;28;1444;-69
2022/01/20 06:25:12;;;;;;;;;;;21.10;51.40;;;;;;5071804;28;1360;-70
2022/01/20 06:27:37;;;;;;;;;;;21.10;51.40;;;;;;5052234;28;1890;-69
2022/01/20 06:30:06;;;;;;;;;;;21.10;51.30;;;;;;5065752;28;1538;-67
2022/01/20 06:32:31;;;;;;;;;;;21.10;51.30;;;;;;5052674;28;1640;-69
2022/01/20 06:34:57;;;;;;;;;;;21.10;51.40;;;;;;5062381;28;1667;-68
2022/01/20 06:37:22;;;;;;;;;;;21.10;51.40;;;;;;5051092;28;1471;-69
2022/01/20 06:39:48;;;;;;;;;;;21.10;51.40;;;;;;5054746;28;1431;-69
2022/01/20 06:42:13;;;;;;;;;;;21.10;51.40;;;;;;5056047;28;1358;-65
2022/01/20 06:44:39;;;;;;;;;;;21.10;51.60;;;;;;5056645;28;1571;-65
2022/01/20 06:47:04;;;;;;;;;;;21.00;51.50;;;;;;5056338;28;1906;-66
2022/01/20 06:49:29;;;;;;;;;;;21.00;51.60;;;;;;5056655;28;1359;-70
2022/01/20 06:51:55;;;;;;;;;;;21.00;51.60;;;;;;5056526;28;1670;-69
2022/01/20 06:54:20;;;;;;;;;;;21.00;51.60;;;;;;5056284;28;1364;-68
2022/01/20 06:56:46;;;;;;;;;;;21.00;51.70;;;;;;5056120;28;1650;-70
2022/01/20 06:59:12;;;;;;;;;;;20.90;51.70;;;;;;5054807;28;1678;-69
2022/01/20 07:01:38;;;;;;;;;;;20.90;51.70;;;;;;5061737;28;1559;-69
2022/01/20 07:04:03;;;;;;;;;;;20.90;51.80;;;;;;5076059;28;1667;-67
2022/01/20 07:06:28;;;;;;;;;;;20.90;51.80;;;;;;5074054;28;1985;-68
2022/01/20 07:08:54;;;;;;;;;;;20.90;51.90;;;;;;5075818;28;1418;-68
2022/01/20 07:11:19;;;;;;;;;;;20.90;51.90;;;;;;5075704;28;1612;-69
2022/01/20 07:13:45;;;;;;;;;;;20.80;51.90;;;;;;5076103;28;1588;-70
2022/01/20 07:16:10;;;;;;;;;;;20.80;51.90;;;;;;5074780;28;1651;-69
2022/01/20 07:18:36;;;;;;;;;;;20.80;52.00;;;;;;5075544;28;1332;-67
2022/01/20 07:21:01;;;;;;;;;;;20.80;52.00;;;;;;5074770;28;1653;-68
2022/01/20 07:23:26;;;;;;;;;;;20.80;52.00;;;;;;5076266;28;1652;-69
2022/01/20 07:25:52;;;;;;;;;;;20.80;52.10;;;;;;5070095;28;1631;-67
2022/01/20 07:28:17;;;;;;;;;;;20.80;52.10;;;;;;5054288;28;1890;-69
2022/01/20 07:30:43;;;;;;;;;;;20.80;52.20;;;;;;5075344;28;1472;-69
2022/01/20 07:33:08;;;;;;;;;;;20.70;52.10;;;;;;5074428;28;1257;-68
2022/01/20 07:35:34;;;;;;;;;;;20.70;52.20;;;;;;5069344;28;1428;-69
2022/01/20 07:38:00;;;;;;;;;;;20.70;52.20;;;;;;5054354;28;1599;-70
2022/01/20 07:40:25;;;;;;;;;;;20.70;52.20;;;;;;5055436;28;1678;-67
2022/01/20 07:42:50;;;;;;;;;;;20.70;52.20;;;;;;5055470;28;1460;-69
2022/01/20 07:45:17;;;;;;;;;;;20.70;52.30;;;;;;5055441;28;1478;-69
2022/01/20 07:47:43;;;;;;;;;;;20.70;52.30;;;;;;5055202;28;1902;-70
2022/01/20 07:50:08;;;;;;;;;;;20.60;52.30;;;;;;5052671;28;1480;-69
2022/01/20 07:52:34;;;;;;;;;;;20.60;52.30;;;;;;5054969;28;1366;-68
2022/01/20 07:54:59;;;;;;;;;;;20.60;52.40;;;;;;5053840;28;1591;-68
2022/01/20 07:57:24;;;;;;;;;;;20.60;52.40;;;;;;5054975;28;1632;-67
2022/01/20 07:59:50;;;;;;;;;;;20.60;52.40;;;;;;5057397;28;1422;-67
2022/01/20 08:02:16;;;;;;;;;;;20.60;52.40;;;;;;5055702;28;1661;-67
2022/01/20 08:04:42;;;;;;;;;;;20.60;52.50;;;;;;5056971;28;1043;-66
2022/01/20 08:07:07;;;;;;;;;;;20.60;52.50;;;;;;5055682;28;1980;-67
2022/01/20 08:09:33;;;;;;;;;;;20.60;52.50;;;;;;5053976;28;1539;-68
2022/01/20 08:11:58;;;;;;;;;;;20.60;52.50;;;;;;5054790;28;1375;-68
2022/01/20 08:14:25;;;;;;;;;;;20.60;52.60;;;;;;5054632;28;1294;-66
2022/01/20 08:16:50;;;;;;;;;;;20.50;52.60;;;;;;5054774;28;1404;-69
2022/01/20 08:19:16;;;;;;;;;;;20.60;52.60;;;;;;5054267;28;1270;-68
2022/01/20 08:21:41;;;;;;;;;;;20.60;52.60;;;;;;5054619;28;1095;-69
2022/01/20 08:24:07;;;;;;;;;;;20.60;52.60;;;;;;5055300;28;1408;-68
2022/01/20 08:26:32;;;;;;;;;;;20.60;52.50;;;;;;5061935;28;1906;-70
2022/01/20 08:28:57;;;;;;;;;;;20.60;52.50;;;;;;5058106;28;1368;-69
2022/01/20 08:31:23;;;;;;;;;;;20.70;52.40;;;;;;5074423;28;1067;-69
2022/01/20 08:33:49;;;;;;;;;;;20.70;52.30;;;;;;5074201;28;1103;-69
2022/01/20 08:36:14;;;;;;;;;;;20.80;52.20;;;;;;5062074;28;1295;-69
2022/01/20 08:38:40;;;;;;;;;;;20.80;52.20;;;;;;5052840;28;1107;-68
2022/01/20 08:41:05;;;;;;;;;;;20.90;52.20;;;;;;5054079;28;1051;-70
2022/01/20 08:43:38;;;;;;;;;;;20.90;52.10;;;;;;5052959;28;1197;-70
2022/01/20 08:46:06;;;;;;;;;;;20.90;52.00;;;;;;5053072;28;1906;-69
2022/01/20 08:48:31;;;;;;;;;;;20.90;51.90;;;;;;5053866;28;1332;-69
2022/01/20 08:50:57;;;;;;;;;;;20.90;51.90;;;;;;5052958;28;1331;-70
2022/01/20 08:53:22;;;;;;;;;;;20.90;51.90;;;;;;5053748;28;1407;-69
2022/01/20 08:55:48;;;;;;;;;;;21.00;51.90;;;;;;5054032;28;1362;-68
2022/01/20 08:58:13;;;;;;;;;;;21.00;51.90;;;;;;5053636;28;1408;-70
2022/01/20 09:00:39;;;;;;;;;;;21.00;51.90;;;;;;5052596;28;1068;-71
2022/01/20 09:03:04;;;;;;;;;;;21.00;51.90;;;;;;5051957;28;1398;-71
2022/01/20 09:05:30;;;;;;;;;;;20.90;51.80;;;;;;5064081;28;1351;-68
2022/01/20 09:07:55;;;;;;;;;;;21.00;51.90;;;;;;5058675;28;2009;-69
2022/01/20 09:10:21;;;;;;;;;;;20.90;51.90;;;;;;5061341;28;1270;-68
2022/01/20 09:15:28;;;;;;;;;;;20.90;51.90;;;;;;5073989;28;1054;-69
2022/01/20 09:17:57;;;;;;;;;;;20.90;51.90;;;;;;5073331;28;1050;-68
2022/01/20 09:20:22;;;;;;;;;;;20.90;52.00;;;;;;5058694;28;1191;-68
2022/01/20 09:22:48;;;;;;;;;;;20.90;52.00;;;;;;5052096;28;1384;-68
2022/01/20 09:25:14;;;;;;;;;;;20.90;52.00;;;;;;5061293;28;1342;-69
2022/01/20 09:27:39;;;;;;;;;;;20.90;52.00;;;;;;5051837;28;1961;-69
2022/01/20 09:30:05;;;;;;;;;;;20.90;52.00;;;;;;5067737;28;1217;-68
2022/01/20 09:32:33;;;;;;;;;;;20.90;52.00;;;;;;5073378;28;1058;-68
2022/01/20 09:34:59;;;;;;;;;;;20.80;52.10;;;;;;5071815;28;1058;-69
2022/01/20 09:37:24;;;;;;;;;;;20.80;52.10;;;;;;5051940;28;1411;-68
2022/01/20 09:39:50;;;;;;;;;;;20.80;52.10;;;;;;5052945;28;1317;-68
2022/01/20 09:42:16;;;;;;;;;;;20.80;52.10;;;;;;5052043;28;1330;-69
2022/01/20 09:44:45;;;;;;;;;;;20.80;52.20;;;;;;5051750;28;1483;-69
2022/01/20 09:47:10;;;;;;;;;;;20.80;52.20;;;;;;5051679;28;1902;-70
2022/01/20 09:49:37;;;;;;;;;;;20.80;52.30;;;;;;5052718;28;1385;-69
2022/01/20 09:52:03;;;;;;;;;;;20.80;52.30;;;;;;5059453;28;2533;-69
2022/01/20 09:54:28;;;;;;;;;;;20.70;52.30;;;;;;5070219;28;1329;-68
2022/01/20 09:56:53;;;;;;;;;;;20.70;52.30;;;;;;5087361;22;1806;-67
2022/01/20 09:59:19;;;;;;;;;;;20.70;52.40;;;;;;5071960;28;2033;-66
2022/01/20 10:01:48;;;;;;;;;;;20.70;52.40;;;;;;5073124;28;1500;-66
2022/01/20 10:04:17;;;;;;;;;;;20.70;52.40;;;;;;5069363;28;1926;-67
2022/01/20 10:06:50;;;;;;;;;;;20.70;52.40;;;;;;5072057;28;1906;-67
2022/01/20 10:09:25;;;;;;;;;;;20.70;52.50;;;;;;5052372;28;1344;-67
2022/01/20 10:11:50;;;;;;;;;;;20.70;52.50;;;;;;5022930;28;1631;-67
2022/01/20 10:14:15;;;;;;;;;;;20.70;52.40;;;;;;5032013;28;1439;-66
2022/01/20 10:16:41;;;;;;;;;;;20.70;52.40;;;;;;5039731;28;1370;-66
2022/01/20 10:19:06;;;;;;;;;;;20.80;52.50;;;;;;5039181;28;1392;-66
2022/01/20 10:21:33;;;;;;;;;;;20.80;52.40;;;;;;5051722;28;1269;-66
2022/01/20 10:24:06;;;;;;;;;;;20.80;52.30;;;;;;5051668;28;1288;-66
2022/01/20 10:26:31;;;;;;;;;;;20.90;52.20;;;;;;5042383;28;1906;-67
2022/01/20 10:29:01;;;;;;;;;;;20.90;52.20;;;;;;5052359;28;1590;-67
2022/01/20 10:31:30;;;;;;;;;;;21.00;52.10;;;;;;5039353;28;1443;-65
2022/01/20 10:33:56;;;;;;;;;;;21.00;52.00;;;;;;5039302;28;1672;-67
2022/01/20 10:36:22;;;;;;;;;;;21.00;51.90;;;;;;5033937;28;1774;-68
2022/01/20 10:38:51;;;;;;;;;;;21.10;51.90;;;;;;5036663;28;1632;-67
2022/01/20 10:41:27;;;;;;;;;;;21.10;51.80;;;;;;5045005;28;1637;-66
2022/01/20 10:43:59;;;;;;;;;;;21.10;51.80;;;;;;5044760;28;1555;-66
2022/01/20 10:46:24;;;;;;;;;;;21.10;51.70;;;;;;5039002;28;1930;-66
2022/01/20 10:48:59;;;;;;;;;;;21.10;51.70;;;;;;5051261;28;1627;-67
2022/01/20 10:51:25;;;;;;;;;;;21.10;51.70;;;;;;5051209;28;1587;-67
2022/01/20 10:54:04;;;;;;;;;;;21.10;51.70;;;;;;5052920;28;1321;-69
2022/01/20 10:56:29;;;;;;;;;;;21.10;51.70;;;;;;5032471;28;1473;-66
2022/01/20 10:59:05;;;;;;;;;;;21.10;51.70;;;;;;5030323;28;1384;-67
2022/01/20 11:01:30;;;;;;;;;;;21.10;51.70;;;;;;5031510;28;1473;-67
2022/01/20 11:03:58;;;;;;;;;;;21.10;51.70;;;;;;5031241;28;1601;-67
2022/01/20 11:06:23;;;;;;;;;;;21.10;51.80;;;;;;5031043;28;1975;-68
2022/01/20 11:08:48;;;;;;;;;;;21.10;51.80;;;;;;5037873;28;1402;-67
2022/01/20 11:11:15;;;;;;;;;;;21.10;51.80;;;;;;5053872;28;1125;-66
2022/01/20 11:13:40;;;;;;;;;;;21.10;51.80;;;;;;5039364;28;1179;-67
2022/01/20 11:16:05;;;;;;;;;;;21.00;51.80;;;;;;5040575;28;1384;-67
2022/01/20 11:18:31;;;;;;;;;;;21.10;51.90;;;;;;5040722;28;1374;-66
2022/01/20 11:20:58;;;;;;;;;;;21.00;51.90;;;;;;5057052;28;1914;-65
2022/01/20 11:23:24;;;;;;;;;;;21.00;51.90;;;;;;5039591;28;1334;-66
2022/01/20 11:25:49;;;;;;;;;;;21.00;51.90;;;;;;5037252;28;1443;-67
2022/01/20 11:28:21;;;;;;;;;;;21.00;52.00;;;;;;5044360;28;1947;-68
2022/01/20 11:31:13;;;;;;;;;;;21.00;52.00;;;;;;5059803;28;1368;-66
2022/01/20 11:33:43;;;;;;;;;;;21.00;52.00;;;;;;5040833;28;1196;-66
2022/01/20 11:36:19;;;;;;;;;;;20.90;52.00;;;;;;5031656;28;1400;-66
2022/01/20 11:38:48;;;;;;;;;;;20.90;52.10;;;;;;5036900;28;1859;-67
2022/01/20 11:41:16;;;;;;;;;;;20.90;52.10;;;;;;5036599;28;1431;-66
2022/01/20 11:43:46;;;;;;;;;;;20.90;52.20;;;;;;5055575;28;1276;-66
2022/01/20 11:46:15;;;;;;;;;;;20.90;52.20;;;;;;5039626;28;1969;-67
2022/01/20 11:48:59;;;;;;;;;;;20.90;52.20;;;;;;5033480;28;1381;-66
2022/01/20 11:51:26;;;;;;;;;;;20.90;52.20;;;;;;5034079;28;1367;-67
2022/01/20 11:53:55;;;;;;;;;;;20.80;52.20;;;;;;5034137;28;1660;-67
2022/01/20 11:56:27;;;;;;;;;;;20.80;52.30;;;;;;5035184;28;1555;-67
2022/01/20 11:58:52;;;;;;;;;;;20.90;52.30;;;;;;5043382;28;1643;-69
2022/01/20 12:01:17;;;;;;;;;;;20.90;53.00;;;;;;5052741;28;1528;-69
2022/01/20 12:03:49;;;;;;;;;;;20.90;52.30;;;;;;5053889;28;1035;-69
2022/01/20 12:06:22;;;;;;;;;;;20.90;52.30;;;;;;5054017;28;1965;-66
2022/01/20 12:08:54;;;;;;;;;;;20.90;52.30;;;;;;5053619;28;1721;-66
2022/01/20 12:11:20;;;;;;;;;;;20.90;52.30;;;;;;5047408;28;1548;-69
2022/01/20 12:13:49;;;;;;;;;;;20.90;52.20;;;;;;5048461;28;1585;-67
2022/01/20 12:16:18;;;;;;;;;;;20.90;52.20;;;;;;5044653;28;2275;-67
2022/01/20 12:18:47;;;;;;;;;;;21.00;52.20;;;;;;5046968;28;1219;-68
2022/01/20 12:21:14;;;;;;;;;;;21.00;52.20;;;;;;5045056;28;1075;-67
2022/01/20 12:23:43;;;;;;;;;;;21.00;52.10;;;;;;5046810;28;1198;-70
2022/01/20 12:26:08;;;;;;;;;;;21.10;52.00;;;;;;5041696;28;1898;-66
2022/01/20 12:28:34;;;;;;;;;;;21.10;52.00;;;;;;5034515;28;1641;-68
2022/01/20 12:31:00;;;;;;;;;;;21.10;51.90;;;;;;5043351;28;1388;-67
2022/01/20 12:33:27;;;;;;;;;;;21.10;51.90;;;;;;5041832;28;1064;-67
2022/01/20 12:35:54;;;;;;;;;;;21.10;51.80;;;;;;5045917;28;1503;-67
2022/01/20 12:38:35;;;;;;;;;;;21.10;51.80;;;;;;5038027;28;1386;-66
2022/01/20 12:41:11;;;;;;;;;;;21.10;51.80;;;;;;5033505;28;1380;-68
2022/01/20 12:43:43;;;;;;;;;;;21.20;51.80;;;;;;5034468;28;1379;-67
2022/01/20 12:46:09;;;;;;;;;;;21.20;51.80;;;;;;5033200;28;1905;-70
2022/01/20 12:48:35;;;;;;;;;;;21.20;51.80;;;;;;5034201;28;1527;-69
2022/01/20 12:51:02;;;;;;;;;;;21.10;51.70;;;;;;5034183;28;1667;-69
2022/01/20 12:53:34;;;;;;;;;;;21.10;51.70;;;;;;5033207;28;1398;-67
2022/01/20 12:56:00;;;;;;;;;;;21.10;51.80;;;;;;5027418;28;1586;-68
2022/01/20 12:58:25;;;;;;;;;;;21.10;51.80;;;;;;5052919;28;1118;-69
2022/01/20 13:00:58;;;;;;;;;;;21.10;51.80;;;;;;5054111;28;1338;-69
2022/01/20 13:03:33;;;;;;;;;;;21.10;51.80;;;;;;5052740;28;1637;-69
2022/01/20 13:05:59;;;;;;;;;;;21.10;51.80;;;;;;5052711;28;1648;-70
2022/01/20 13:08:30;;;;;;;;;;;21.10;51.90;;;;;;5052484;28;2019;-69
2022/01/20 13:11:03;;;;;;;;;;;21.10;51.90;;;;;;5052616;28;1700;-69
2022/01/20 13:13:28;;;;;;;;;;;21.10;51.90;;;;;;5041917;28;1454;-68
2022/01/20 13:15:54;;;;;;;;;;;21.10;51.90;;;;;;5062468;28;1505;-70
2022/01/20 13:18:19;;;;;;;;;;;21.00;52.00;;;;;;5043759;28;1270;-70
2022/01/20 13:20:58;;;;;;;;;;;21.00;52.00;;;;;;5053499;28;1616;-69
2022/01/20 13:26:01;;;;;;;;;;;21.00;52.10;;;;;;5038530;28;1405;-68
2022/01/20 13:28:26;;;;;;;;;;;21.00;52.20;;;;;;5033191;28;1952;-69
2022/01/20 13:30:52;;;;;;;;;;;21.00;52.20;;;;;;5040893;28;1567;-69
2022/01/20 13:33:17;;;;;;;;;;;21.00;52.20;;;;;;5051933;28;1302;-69
2022/01/20 13:35:45;;;;;;;;;;;20.90;52.20;;;;;;5035810;28;1146;-69
2022/01/20 13:38:10;;;;;;;;;;;20.90;52.20;;;;;;5031890;28;1341;-70
2022/01/20 13:40:36;;;;;;;;;;;20.90;52.30;;;;;;5032184;28;1171;-69
2022/01/20 13:45:53;;;;;;;;;;;20.90;52.30;;;;;;5033246;28;1298;-69
2022/01/20 13:48:24;;;;;;;;;;;20.90;52.30;;;;;;5031469;28;1965;-69
2022/01/20 13:50:53;;;;;;;;;;;20.90;52.40;;;;;;5031863;28;2032;-69
2022/01/20 13:53:19;;;;;;;;;;;20.80;52.30;;;;;;5032964;28;1357;-69
2022/01/20 13:55:45;;;;;;;;;;;20.80;52.40;;;;;;5032938;28;1405;-69
2022/01/20 13:58:23;;;;;;;;;;;20.90;52.40;;;;;;5032803;28;1425;-69
2022/01/20 14:00:48;;;;;;;;;;;20.80;52.40;;;;;;5032789;28;1389;-70
2022/01/20 14:03:14;;;;;;;;;;;20.80;52.50;;;;;;5033060;28;1251;-69
2022/01/20 14:05:40;;;;;;;;;;;20.80;52.50;;;;;;5032733;28;1008;-70
2022/01/20 14:08:06;;;;;;;;;;;20.80;52.50;;;;;;5032345;28;1903;-69
2022/01/20 14:10:31;;;;;;;;;;;20.80;52.50;;;;;;5032731;28;1361;-69
2022/01/20 14:12:57;;;;;;;;;;;20.80;52.50;;;;;;5032888;28;1265;-69
2022/01/20 14:15:25;;;;;;;;;;;20.70;52.50;;;;;;5032699;28;1180;-70
2022/01/20 14:17:53;;;;;;;;;;;20.70;52.50;;;;;;5032530;28;1291;-69
2022/01/20 14:20:18;;;;;;;;;;;20.70;52.50;;;;;;5037077;28;1322;-69
2022/01/20 14:22:44;;;;;;;;;;;20.70;52.60;;;;;;5051192;28;1293;-69
2022/01/20 14:25:12;;;;;;;;;;;20.70;52.60;;;;;;5041988;28;1254;-69
2022/01/20 14:27:38;;;;;;;;;;;20.70;52.60;;;;;;5031253;28;1894;-70
2022/01/20 14:30:04;;;;;;;;;;;20.70;52.70;;;;;;5032432;28;1277;-70
2022/01/20 14:32:30;;;;;;;;;;;20.70;52.70;;;;;;5051428;28;1426;-69
2022/01/20 14:34:55;;;;;;;;;;;20.70;52.70;;;;;;5041625;28;1093;-70
2022/01/20 14:37:20;;;;;;;;;;;20.70;52.70;;;;;;5032180;28;1301;-69
2022/01/20 14:39:46;;;;;;;;;;;20.70;52.70;;;;;;5032356;28;1080;-70
2022/01/20 14:42:13;;;;;;;;;;;20.70;52.80;;;;;;5032600;28;1063;-69
2022/01/20 14:44:39;;;;;;;;;;;20.60;52.70;;;;;;5032447;28;1320;-70
2022/01/20 14:47:05;;;;;;;;;;;20.60;52.80;;;;;;5039574;28;1902;-69
2022/01/20 14:49:31;;;;;;;;;;;20.60;52.80;;;;;;5038856;28;1133;-69
2022/01/20 14:51:59;;;;;;;;;;;20.60;52.80;;;;;;5044774;28;1266;-68
2022/01/20 14:54:25;;;;;;;;;;;20.60;52.90;;;;;;5046957;28;1446;-68
2022/01/20 14:56:50;;;;;;;;;;;20.60;52.90;;;;;;5044645;28;1251;-69
2022/01/20 14:59:16;;;;;;;;;;;20.60;53.00;;;;;;5047369;28;1098;-71
2022/01/20 15:01:41;;;;;;;;;;;20.60;53.00;;;;;;5043540;28;1161;-69
2022/01/20 15:04:06;;;;;;;;;;;20.50;53.00;;;;;;5041391;28;1142;-68
2022/01/20 15:06:32;;;;;;;;;;;20.50;53.00;;;;;;5048076;28;1998;-70
2022/01/20 15:08:58;;;;;;;;;;;20.50;53.10;;;;;;5048261;28;1091;-69
2022/01/20 15:11:23;;;;;;;;;;;20.50;53.10;;;;;;5043995;28;1153;-68
2022/01/20 15:13:49;;;;;;;;;;;20.50;53.10;;;;;;5042396;28;1054;-67
2022/01/20 15:16:14;;;;;;;;;;;20.50;53.10;;;;;;5055738;28;1281;-67
2022/01/20 15:18:40;;;;;;;;;;;20.50;53.10;;;;;;5055619;28;1265;-67
2022/01/20 15:21:06;;;;;;;;;;;20.50;53.10;;;;;;5055546;28;1413;-67
2022/01/20 15:23:32;;;;;;;;;;;20.50;53.10;;;;;;5055849;28;1034;-67
2022/01/20 15:25:59;;;;;;;;;;;20.50;53.10;;;;;;5039610;28;1267;-68